sensor_id;sensor_type;location;lat;lon;timestamp;P1;durP1;ratioP1;P2;durP2;ratioP2
59300;SDS011;45073;52.740;6.784;2023-05-16T00:02:03;12.88;;;2.05;;
59300;SDS011;45073;52.740;6.784;2023-05-16T00:04:29;10.60;;;2.10;;
59300;SDS011;45073;52.740;6.784;2023-05-16T00:06:57;11.35;;;2.70;;
59300;SDS011;45073;52.740;6.784;2023-05-16T00:09:22;13.35;;;2.33;;
59300;SDS011;45073;52.740;6.784;2023-05-16T00:11:48;14.13;;;2.67;;
59300;SDS011;45073;52.740;6.784;2023-05-16T00:14:14;12.55;;;2.45;;
59300;SDS011;45073;52.740;6.784;2023-05-16T00:16:40;15.07;;;4.00;;
59300;SDS011;45073;52.740;6.784;2023-05-16T00:19:06;11.20;;;3.15;;
59300;SDS011;45073;52.740;6.784;2023-05-16T00:21:32;12.95;;;3.25;;
59300;SDS011;45073;52.740;6.784;2023-05-16T00:23:58;12.20;;;2.15;;
59300;SDS011;45073;52.740;6.784;2023-05-16T00:26:24;12.90;;;2.83;;
59300;SDS011;45073;52.740;6.784;2023-05-16T00:28:50;9.10;;;2.47;;
59300;SDS011;45073;52.740;6.784;2023-05-16T00:31:15;13.30;;;2.58;;
59300;SDS011;45073;52.740;6.784;2023-05-16T00:33:41;15.10;;;2.25;;
59300;SDS011;45073;52.740;6.784;2023-05-16T00:36:06;9.77;;;1.50;;
59300;SDS011;45073;52.740;6.784;2023-05-16T00:38:32;11.30;;;2.10;;
59300;SDS011;45073;52.740;6.784;2023-05-16T00:40:58;11.25;;;2.28;;
59300;SDS011;45073;52.740;6.784;2023-05-16T00:43:23;11.10;;;2.17;;
59300;SDS011;45073;52.740;6.784;2023-05-16T00:45:49;17.70;;;3.13;;
59300;SDS011;45073;52.740;6.784;2023-05-16T00:48:15;9.45;;;2.15;;
59300;SDS011;45073;52.740;6.784;2023-05-16T00:50:41;14.38;;;2.20;;
59300;SDS011;45073;52.740;6.784;2023-05-16T00:53:07;10.77;;;1.88;;
59300;SDS011;45073;52.740;6.784;2023-05-16T00:55:32;10.37;;;2.17;;
59300;SDS011;45073;52.740;6.784;2023-05-16T00:57:58;8.93;;;1.75;;
59300;SDS011;45073;52.740;6.784;2023-05-16T01:00:23;12.10;;;1.85;;
59300;SDS011;45073;52.740;6.784;2023-05-16T01:02:50;10.25;;;2.45;;
59300;SDS011;45073;52.740;6.784;2023-05-16T01:05:17;13.35;;;2.40;;
59300;SDS011;45073;52.740;6.784;2023-05-16T01:07:44;11.85;;;2.28;;
59300;SDS011;45073;52.740;6.784;2023-05-16T01:10:10;15.10;;;2.15;;
59300;SDS011;45073;52.740;6.784;2023-05-16T01:12:36;16.73;;;2.22;;
59300;SDS011;45073;52.740;6.784;2023-05-16T01:18:00;9.75;;;1.98;;
59300;SDS011;45073;52.740;6.784;2023-05-16T01:20:36;11.13;;;2.42;;
59300;SDS011;45073;52.740;6.784;2023-05-16T01:26:25;7.97;;;1.35;;
59300;SDS011;45073;52.740;6.784;2023-05-16T01:28:52;12.48;;;1.92;;
59300;SDS011;45073;52.740;6.784;2023-05-16T01:31:22;8.45;;;1.85;;
59300;SDS011;45073;52.740;6.784;2023-05-16T01:33:48;9.65;;;1.85;;
59300;SDS011;45073;52.740;6.784;2023-05-16T01:42:09;12.90;;;1.80;;
59300;SDS011;45073;52.740;6.784;2023-05-16T01:47:16;11.48;;;2.03;;
59300;SDS011;45073;52.740;6.784;2023-05-16T01:52:49;12.15;;;3.30;;
59300;SDS011;45073;52.740;6.784;2023-05-16T01:58:02;9.90;;;1.60;;
59300;SDS011;45073;52.740;6.784;2023-05-16T02:00:29;11.60;;;1.65;;
59300;SDS011;45073;52.740;6.784;2023-05-16T02:02:55;10.05;;;1.75;;
59300;SDS011;45073;52.740;6.784;2023-05-16T02:05:21;8.50;;;1.55;;
59300;SDS011;45073;52.740;6.784;2023-05-16T02:07:47;9.18;;;2.17;;
59300;SDS011;45073;52.740;6.784;2023-05-16T02:10:13;14.60;;;2.00;;
59300;SDS011;45073;52.740;6.784;2023-05-16T02:12:38;10.27;;;1.83;;
59300;SDS011;45073;52.740;6.784;2023-05-16T02:15:04;10.13;;;1.98;;
59300;SDS011;45073;52.740;6.784;2023-05-16T02:17:30;8.68;;;1.52;;
59300;SDS011;45073;52.740;6.784;2023-05-16T02:19:56;11.50;;;2.58;;
59300;SDS011;45073;52.740;6.784;2023-05-16T02:22:22;12.65;;;2.55;;
59300;SDS011;45073;52.740;6.784;2023-05-16T02:24:47;13.18;;;2.65;;
59300;SDS011;45073;52.740;6.784;2023-05-16T02:27:13;8.35;;;1.42;;
59300;SDS011;45073;52.740;6.784;2023-05-16T02:29:38;17.70;;;2.22;;
59300;SDS011;45073;52.740;6.784;2023-05-16T02:32:04;10.88;;;2.00;;
59300;SDS011;45073;52.740;6.784;2023-05-16T02:34:30;14.13;;;1.77;;
59300;SDS011;45073;52.740;6.784;2023-05-16T02:36:55;11.05;;;1.42;;
59300;SDS011;45073;52.740;6.784;2023-05-16T02:39:21;9.57;;;1.73;;
59300;SDS011;45073;52.740;6.784;2023-05-16T02:41:47;9.50;;;1.63;;
59300;SDS011;45073;52.740;6.784;2023-05-16T02:44:12;10.20;;;1.67;;
59300;SDS011;45073;52.740;6.784;2023-05-16T02:46:38;11.43;;;1.58;;
59300;SDS011;45073;52.740;6.784;2023-05-16T02:49:03;6.65;;;1.42;;
59300;SDS011;45073;52.740;6.784;2023-05-16T02:51:29;6.63;;;1.42;;
59300;SDS011;45073;52.740;6.784;2023-05-16T02:53:55;14.73;;;2.10;;
59300;SDS011;45073;52.740;6.784;2023-05-16T02:56:21;6.88;;;1.77;;
59300;SDS011;45073;52.740;6.784;2023-05-16T02:58:47;11.93;;;1.60;;
59300;SDS011;45073;52.740;6.784;2023-05-16T03:01:13;8.43;;;1.52;;
59300;SDS011;45073;52.740;6.784;2023-05-16T03:03:39;13.05;;;1.88;;
59300;SDS011;45073;52.740;6.784;2023-05-16T03:06:05;12.38;;;2.75;;
59300;SDS011;45073;52.740;6.784;2023-05-16T03:08:31;11.10;;;1.52;;
59300;SDS011;45073;52.740;6.784;2023-05-16T03:10:57;10.77;;;2.75;;
59300;SDS011;45073;52.740;6.784;2023-05-16T03:13:23;9.82;;;1.70;;
59300;SDS011;45073;52.740;6.784;2023-05-16T03:15:48;7.10;;;1.80;;
59300;SDS011;45073;52.740;6.784;2023-05-16T03:18:17;8.10;;;1.33;;
59300;SDS011;45073;52.740;6.784;2023-05-16T03:20:43;10.18;;;2.03;;
59300;SDS011;45073;52.740;6.784;2023-05-16T03:23:08;13.82;;;1.80;;
59300;SDS011;45073;52.740;6.784;2023-05-16T03:25:34;13.27;;;1.58;;
59300;SDS011;45073;52.740;6.784;2023-05-16T03:28:01;12.00;;;1.65;;
59300;SDS011;45073;52.740;6.784;2023-05-16T03:30:27;8.80;;;1.95;;
59300;SDS011;45073;52.740;6.784;2023-05-16T03:32:52;10.93;;;1.42;;
59300;SDS011;45073;52.740;6.784;2023-05-16T03:35:18;10.60;;;2.08;;
59300;SDS011;45073;52.740;6.784;2023-05-16T03:37:44;12.23;;;1.70;;
59300;SDS011;45073;52.740;6.784;2023-05-16T03:40:10;7.97;;;1.75;;
59300;SDS011;45073;52.740;6.784;2023-05-16T03:42:36;11.52;;;1.70;;
59300;SDS011;45073;52.740;6.784;2023-05-16T03:45:03;11.55;;;1.70;;
59300;SDS011;45073;52.740;6.784;2023-05-16T03:47:30;7.15;;;1.50;;
59300;SDS011;45073;52.740;6.784;2023-05-16T03:49:56;11.48;;;1.83;;
59300;SDS011;45073;52.740;6.784;2023-05-16T03:52:22;8.68;;;1.30;;
59300;SDS011;45073;52.740;6.784;2023-05-16T03:54:47;10.35;;;1.95;;
59300;SDS011;45073;52.740;6.784;2023-05-16T03:57:13;7.95;;;1.80;;
59300;SDS011;45073;52.740;6.784;2023-05-16T03:59:39;12.13;;;1.60;;
59300;SDS011;45073;52.740;6.784;2023-05-16T04:02:04;7.25;;;1.65;;
59300;SDS011;45073;52.740;6.784;2023-05-16T04:04:30;15.25;;;1.98;;
59300;SDS011;45073;52.740;6.784;2023-05-16T04:06:56;4.90;;;1.10;;
59300;SDS011;45073;52.740;6.784;2023-05-16T04:09:21;17.75;;;2.47;;
59300;SDS011;45073;52.740;6.784;2023-05-16T04:11:47;10.18;;;1.80;;
59300;SDS011;45073;52.740;6.784;2023-05-16T04:14:13;15.45;;;1.95;;
59300;SDS011;45073;52.740;6.784;2023-05-16T04:16:39;10.98;;;3.28;;
59300;SDS011;45073;52.740;6.784;2023-05-16T04:19:05;16.02;;;2.05;;
59300;SDS011;45073;52.740;6.784;2023-05-16T04:21:31;12.30;;;1.60;;
59300;SDS011;45073;52.740;6.784;2023-05-16T04:23:57;12.02;;;1.85;;
59300;SDS011;45073;52.740;6.784;2023-05-16T04:26:22;8.93;;;1.88;;
59300;SDS011;45073;52.740;6.784;2023-05-16T04:28:48;9.18;;;1.48;;
59300;SDS011;45073;52.740;6.784;2023-05-16T04:31:14;9.52;;;1.70;;
59300;SDS011;45073;52.740;6.784;2023-05-16T04:33:40;12.32;;;1.65;;
59300;SDS011;45073;52.740;6.784;2023-05-16T04:36:06;9.65;;;1.50;;
59300;SDS011;45073;52.740;6.784;2023-05-16T04:38:32;11.40;;;1.70;;
59300;SDS011;45073;52.740;6.784;2023-05-16T04:40:58;8.80;;;1.52;;
59300;SDS011;45073;52.740;6.784;2023-05-16T04:43:23;12.60;;;2.00;;
59300;SDS011;45073;52.740;6.784;2023-05-16T04:45:49;12.35;;;1.77;;
59300;SDS011;45073;52.740;6.784;2023-05-16T04:48:18;11.18;;;1.65;;
59300;SDS011;45073;52.740;6.784;2023-05-16T04:50:43;14.65;;;2.03;;
59300;SDS011;45073;52.740;6.784;2023-05-16T04:53:09;11.38;;;1.50;;
59300;SDS011;45073;52.740;6.784;2023-05-16T04:55:35;10.02;;;2.08;;
59300;SDS011;45073;52.740;6.784;2023-05-16T04:58:01;12.43;;;2.05;;
59300;SDS011;45073;52.740;6.784;2023-05-16T05:00:26;8.57;;;2.35;;
59300;SDS011;45073;52.740;6.784;2023-05-16T05:02:52;10.70;;;2.38;;
59300;SDS011;45073;52.740;6.784;2023-05-16T05:05:18;10.55;;;1.45;;
59300;SDS011;45073;52.740;6.784;2023-05-16T05:07:43;11.07;;;2.53;;
59300;SDS011;45073;52.740;6.784;2023-05-16T05:10:09;10.77;;;1.95;;
59300;SDS011;45073;52.740;6.784;2023-05-16T05:12:35;10.70;;;2.80;;
59300;SDS011;45073;52.740;6.784;2023-05-16T05:15:02;8.93;;;1.67;;
59300;SDS011;45073;52.740;6.784;2023-05-16T05:17:28;6.93;;;1.63;;
59300;SDS011;45073;52.740;6.784;2023-05-16T05:19:54;10.00;;;1.80;;
59300;SDS011;45073;52.740;6.784;2023-05-16T05:22:19;10.55;;;1.55;;
59300;SDS011;45073;52.740;6.784;2023-05-16T05:24:45;16.77;;;1.98;;
59300;SDS011;45073;52.740;6.784;2023-05-16T05:27:11;8.57;;;2.08;;
59300;SDS011;45073;52.740;6.784;2023-05-16T05:29:37;9.43;;;1.85;;
59300;SDS011;45073;52.740;6.784;2023-05-16T05:32:02;9.38;;;1.63;;
59300;SDS011;45073;52.740;6.784;2023-05-16T05:34:28;8.52;;;1.50;;
59300;SDS011;45073;52.740;6.784;2023-05-16T05:36:54;10.15;;;1.90;;
59300;SDS011;45073;52.740;6.784;2023-05-16T05:39:20;8.50;;;1.48;;
59300;SDS011;45073;52.740;6.784;2023-05-16T05:41:46;10.20;;;2.78;;
59300;SDS011;45073;52.740;6.784;2023-05-16T05:44:12;8.15;;;1.70;;
59300;SDS011;45073;52.740;6.784;2023-05-16T05:46:37;11.05;;;1.73;;
59300;SDS011;45073;52.740;6.784;2023-05-16T05:49:03;12.82;;;1.80;;
59300;SDS011;45073;52.740;6.784;2023-05-16T05:51:29;7.20;;;1.50;;
59300;SDS011;45073;52.740;6.784;2023-05-16T05:53:55;17.25;;;1.95;;
59300;SDS011;45073;52.740;6.784;2023-05-16T05:56:21;11.45;;;1.77;;
59300;SDS011;45073;52.740;6.784;2023-05-16T05:58:48;11.88;;;2.10;;
59300;SDS011;45073;52.740;6.784;2023-05-16T06:01:14;11.63;;;1.70;;
59300;SDS011;45073;52.740;6.784;2023-05-16T06:03:40;10.60;;;1.77;;
59300;SDS011;45073;52.740;6.784;2023-05-16T06:06:07;8.90;;;2.10;;
59300;SDS011;45073;52.740;6.784;2023-05-16T06:08:33;7.15;;;1.50;;
59300;SDS011;45073;52.740;6.784;2023-05-16T06:10:59;15.50;;;3.33;;
59300;SDS011;45073;52.740;6.784;2023-05-16T06:13:25;12.68;;;1.63;;
59300;SDS011;45073;52.740;6.784;2023-05-16T06:15:51;8.75;;;1.48;;
59300;SDS011;45073;52.740;6.784;2023-05-16T06:18:18;9.20;;;1.40;;
59300;SDS011;45073;52.740;6.784;2023-05-16T06:20:44;7.13;;;1.35;;
59300;SDS011;45073;52.740;6.784;2023-05-16T06:23:10;11.48;;;1.70;;
59300;SDS011;45073;52.740;6.784;2023-05-16T06:25:36;7.72;;;1.55;;
59300;SDS011;45073;52.740;6.784;2023-05-16T06:28:02;10.32;;;1.80;;
59300;SDS011;45073;52.740;6.784;2023-05-16T06:30:28;15.50;;;1.70;;
59300;SDS011;45073;52.740;6.784;2023-05-16T06:32:53;7.38;;;1.67;;
59300;SDS011;45073;52.740;6.784;2023-05-16T06:35:19;16.52;;;1.85;;
59300;SDS011;45073;52.740;6.784;2023-05-16T06:37:45;8.20;;;1.95;;
59300;SDS011;45073;52.740;6.784;2023-05-16T06:40:10;9.30;;;1.80;;
59300;SDS011;45073;52.740;6.784;2023-05-16T06:42:36;6.03;;;1.30;;
59300;SDS011;45073;52.740;6.784;2023-05-16T06:45:02;11.18;;;2.20;;
59300;SDS011;45073;52.740;6.784;2023-05-16T06:47:28;11.63;;;2.08;;
59300;SDS011;45073;52.740;6.784;2023-05-16T06:49:53;7.80;;;1.98;;
59300;SDS011;45073;52.740;6.784;2023-05-16T06:52:19;12.07;;;1.75;;
59300;SDS011;45073;52.740;6.784;2023-05-16T06:54:45;8.57;;;1.20;;
59300;SDS011;45073;52.740;6.784;2023-05-16T06:57:11;10.50;;;1.58;;
59300;SDS011;45073;52.740;6.784;2023-05-16T06:59:37;10.30;;;2.03;;
59300;SDS011;45073;52.740;6.784;2023-05-16T07:02:03;9.48;;;1.67;;
59300;SDS011;45073;52.740;6.784;2023-05-16T07:04:29;7.07;;;1.40;;
59300;SDS011;45073;52.740;6.784;2023-05-16T07:06:55;9.48;;;1.65;;
59300;SDS011;45073;52.740;6.784;2023-05-16T07:09:21;8.25;;;1.25;;
59300;SDS011;45073;52.740;6.784;2023-05-16T07:11:46;8.90;;;1.35;;
59300;SDS011;45073;52.740;6.784;2023-05-16T07:14:12;9.82;;;2.35;;
59300;SDS011;45073;52.740;6.784;2023-05-16T07:16:38;6.95;;;1.48;;
59300;SDS011;45073;52.740;6.784;2023-05-16T07:19:03;8.25;;;1.20;;
59300;SDS011;45073;52.740;6.784;2023-05-16T07:21:29;8.07;;;1.40;;
59300;SDS011;45073;52.740;6.784;2023-05-16T07:23:55;8.45;;;1.85;;
59300;SDS011;45073;52.740;6.784;2023-05-16T07:26:21;4.05;;;0.98;;
59300;SDS011;45073;52.740;6.784;2023-05-16T07:28:51;5.25;;;1.05;;
59300;SDS011;45073;52.740;6.784;2023-05-16T07:31:17;1.83;;;0.50;;
59300;SDS011;45073;52.740;6.784;2023-05-16T07:33:43;6.75;;;1.00;;
59300;SDS011;45073;52.740;6.784;2023-05-16T07:36:10;5.07;;;1.10;;
59300;SDS011;45073;52.740;6.784;2023-05-16T07:38:36;4.80;;;1.00;;
59300;SDS011;45073;52.740;6.784;2023-05-16T07:41:02;4.13;;;0.60;;
59300;SDS011;45073;52.740;6.784;2023-05-16T07:43:28;8.85;;;1.38;;
59300;SDS011;45073;52.740;6.784;2023-05-16T07:45:53;4.97;;;0.90;;
59300;SDS011;45073;52.740;6.784;2023-05-16T07:48:19;6.65;;;1.10;;
59300;SDS011;45073;52.740;6.784;2023-05-16T07:50:45;6.15;;;1.00;;
59300;SDS011;45073;52.740;6.784;2023-05-16T07:53:10;6.55;;;1.00;;
59300;SDS011;45073;52.740;6.784;2023-05-16T07:55:36;8.27;;;1.60;;
59300;SDS011;45073;52.740;6.784;2023-05-16T07:58:02;7.32;;;0.90;;
59300;SDS011;45073;52.740;6.784;2023-05-16T08:00:28;7.18;;;1.02;;
59300;SDS011;45073;52.740;6.784;2023-05-16T08:02:53;10.70;;;1.73;;
59300;SDS011;45073;52.740;6.784;2023-05-16T08:05:19;7.78;;;1.08;;
59300;SDS011;45073;52.740;6.784;2023-05-16T08:07:45;7.35;;;1.20;;
59300;SDS011;45073;52.740;6.784;2023-05-16T08:10:11;9.73;;;2.20;;
59300;SDS011;45073;52.740;6.784;2023-05-16T08:12:36;6.22;;;1.08;;
59300;SDS011;45073;52.740;6.784;2023-05-16T08:15:03;9.35;;;1.30;;
59300;SDS011;45073;52.740;6.784;2023-05-16T08:17:29;7.97;;;1.10;;
59300;SDS011;45073;52.740;6.784;2023-05-16T08:19:54;8.02;;;1.73;;
59300;SDS011;45073;52.740;6.784;2023-05-16T08:22:20;4.05;;;0.85;;
59300;SDS011;45073;52.740;6.784;2023-05-16T08:24:46;8.38;;;1.70;;
59300;SDS011;45073;52.740;6.784;2023-05-16T08:27:11;7.32;;;1.33;;
59300;SDS011;45073;52.740;6.784;2023-05-16T08:29:37;6.35;;;1.55;;
59300;SDS011;45073;52.740;6.784;2023-05-16T08:32:03;9.85;;;1.73;;
59300;SDS011;45073;52.740;6.784;2023-05-16T08:34:30;6.28;;;1.20;;
59300;SDS011;45073;52.740;6.784;2023-05-16T08:36:56;7.90;;;1.27;;
59300;SDS011;45073;52.740;6.784;2023-05-16T08:39:21;9.90;;;1.77;;
59300;SDS011;45073;52.740;6.784;2023-05-16T08:41:47;7.82;;;1.77;;
59300;SDS011;45073;52.740;6.784;2023-05-16T08:44:13;5.53;;;0.93;;
59300;SDS011;45073;52.740;6.784;2023-05-16T08:46:47;6.47;;;1.27;;
59300;SDS011;45073;52.740;6.784;2023-05-16T08:49:16;6.43;;;1.40;;
59300;SDS011;45073;52.740;6.784;2023-05-16T08:51:43;9.82;;;2.28;;
59300;SDS011;45073;52.740;6.784;2023-05-16T08:54:11;8.63;;;1.70;;
59300;SDS011;45073;52.740;6.784;2023-05-16T08:56:38;7.57;;;1.88;;
59300;SDS011;45073;52.740;6.784;2023-05-16T08:59:06;8.05;;;1.58;;
59300;SDS011;45073;52.740;6.784;2023-05-16T09:01:32;5.05;;;1.27;;
59300;SDS011;45073;52.740;6.784;2023-05-16T09:03:58;7.05;;;1.60;;
59300;SDS011;45073;52.740;6.784;2023-05-16T09:06:24;5.75;;;1.55;;
59300;SDS011;45073;52.740;6.784;2023-05-16T09:08:51;4.75;;;0.90;;
59300;SDS011;45073;52.740;6.784;2023-05-16T09:11:18;5.30;;;1.17;;
59300;SDS011;45073;52.740;6.784;2023-05-16T09:13:43;9.73;;;2.03;;
59300;SDS011;45073;52.740;6.784;2023-05-16T09:18:36;4.72;;;1.23;;
59300;SDS011;45073;52.740;6.784;2023-05-16T09:21:03;10.07;;;2.55;;
59300;SDS011;45073;52.740;6.784;2023-05-16T09:23:29;7.18;;;2.45;;
59300;SDS011;45073;52.740;6.784;2023-05-16T09:25:56;8.75;;;1.88;;
59300;SDS011;45073;52.740;6.784;2023-05-16T09:28:22;10.90;;;1.90;;
59300;SDS011;45073;52.740;6.784;2023-05-16T09:30:50;9.65;;;1.90;;
59300;SDS011;45073;52.740;6.784;2023-05-16T09:33:17;7.80;;;1.30;;
59300;SDS011;45073;52.740;6.784;2023-05-16T09:35:43;9.88;;;1.40;;
59300;SDS011;45073;52.740;6.784;2023-05-16T09:38:15;11.68;;;2.00;;
59300;SDS011;45073;52.740;6.784;2023-05-16T09:40:41;9.30;;;1.90;;
59300;SDS011;45073;52.740;6.784;2023-05-16T09:43:07;10.30;;;2.13;;
59300;SDS011;45073;52.740;6.784;2023-05-16T09:45:33;10.68;;;2.55;;
59300;SDS011;45073;52.740;6.784;2023-05-16T09:48:09;9.55;;;2.00;;
59300;SDS011;45073;52.740;6.784;2023-05-16T09:50:39;4.70;;;1.00;;
59300;SDS011;45073;52.740;6.784;2023-05-16T09:53:06;7.97;;;1.73;;
59300;SDS011;45073;52.740;6.784;2023-05-16T09:55:32;8.50;;;1.70;;
59300;SDS011;45073;52.740;6.784;2023-05-16T09:57:58;13.88;;;2.03;;
59300;SDS011;45073;52.740;6.784;2023-05-16T10:00:27;6.55;;;1.00;;
59300;SDS011;45073;52.740;6.784;2023-05-16T10:02:57;4.68;;;1.00;;
59300;SDS011;45073;52.740;6.784;2023-05-16T10:05:26;7.40;;;1.67;;
59300;SDS011;45073;52.740;6.784;2023-05-16T10:07:53;7.97;;;1.58;;
59300;SDS011;45073;52.740;6.784;2023-05-16T10:10:20;9.20;;;2.03;;
59300;SDS011;45073;52.740;6.784;2023-05-16T10:12:47;9.93;;;2.10;;
59300;SDS011;45073;52.740;6.784;2023-05-16T10:15:14;6.95;;;1.52;;
59300;SDS011;45073;52.740;6.784;2023-05-16T10:17:41;8.70;;;2.17;;
59300;SDS011;45073;52.740;6.784;2023-05-16T10:20:10;11.82;;;2.00;;
59300;SDS011;45073;52.740;6.784;2023-05-16T10:22:38;10.60;;;2.17;;
59300;SDS011;45073;52.740;6.784;2023-05-16T10:25:16;10.13;;;2.45;;
59300;SDS011;45073;52.740;6.784;2023-05-16T10:27:42;9.32;;;2.42;;
59300;SDS011;45073;52.740;6.784;2023-05-16T10:30:08;9.43;;;1.92;;
59300;SDS011;45073;52.740;6.784;2023-05-16T10:32:35;10.70;;;2.05;;
59300;SDS011;45073;52.740;6.784;2023-05-16T10:35:02;8.05;;;1.65;;
59300;SDS011;45073;52.740;6.784;2023-05-16T10:37:29;8.48;;;1.80;;
59300;SDS011;45073;52.740;6.784;2023-05-16T10:39:56;9.15;;;2.05;;
59300;SDS011;45073;52.740;6.784;2023-05-16T10:42:23;8.60;;;1.70;;
59300;SDS011;45073;52.740;6.784;2023-05-16T10:44:52;9.32;;;1.55;;
59300;SDS011;45073;52.740;6.784;2023-05-16T10:47:19;7.03;;;1.13;;
59300;SDS011;45073;52.740;6.784;2023-05-16T10:49:44;8.20;;;1.63;;
59300;SDS011;45073;52.740;6.784;2023-05-16T10:52:11;6.70;;;1.67;;
59300;SDS011;45073;52.740;6.784;2023-05-16T10:57:08;7.22;;;1.80;;
59300;SDS011;45073;52.740;6.784;2023-05-16T10:59:40;8.63;;;1.70;;
59300;SDS011;45073;52.740;6.784;2023-05-16T11:02:28;9.57;;;2.30;;
59300;SDS011;45073;52.740;6.784;2023-05-16T11:04:57;6.88;;;1.60;;
59300;SDS011;45073;52.740;6.784;2023-05-16T11:07:25;14.23;;;2.00;;
59300;SDS011;45073;52.740;6.784;2023-05-16T11:12:35;9.63;;;2.05;;
59300;SDS011;45073;52.740;6.784;2023-05-16T11:17:41;10.23;;;2.22;;
59300;SDS011;45073;52.740;6.784;2023-05-16T11:20:07;7.07;;;1.63;;
59300;SDS011;45073;52.740;6.784;2023-05-16T11:22:49;10.20;;;2.25;;
59300;SDS011;45073;52.740;6.784;2023-05-16T11:25:16;10.52;;;1.80;;
59300;SDS011;45073;52.740;6.784;2023-05-16T11:27:58;10.50;;;1.80;;
59300;SDS011;45073;52.740;6.784;2023-05-16T11:30:25;10.73;;;1.92;;
59300;SDS011;45073;52.740;6.784;2023-05-16T11:32:50;8.90;;;1.75;;
59300;SDS011;45073;52.740;6.784;2023-05-16T11:35:16;11.90;;;2.05;;
59300;SDS011;45073;52.740;6.784;2023-05-16T11:37:46;9.18;;;1.63;;
59300;SDS011;45073;52.740;6.784;2023-05-16T11:40:12;9.10;;;1.90;;
59300;SDS011;45073;52.740;6.784;2023-05-16T11:42:45;7.40;;;1.80;;
59300;SDS011;45073;52.740;6.784;2023-05-16T11:45:14;7.43;;;1.40;;
59300;SDS011;45073;52.740;6.784;2023-05-16T11:47:44;6.97;;;1.55;;
59300;SDS011;45073;52.740;6.784;2023-05-16T11:50:12;8.27;;;1.92;;
59300;SDS011;45073;52.740;6.784;2023-05-16T11:52:39;6.90;;;1.50;;
59300;SDS011;45073;52.740;6.784;2023-05-16T11:55:08;10.20;;;1.90;;
59300;SDS011;45073;52.740;6.784;2023-05-16T11:57:39;7.50;;;2.10;;
59300;SDS011;45073;52.740;6.784;2023-05-16T12:00:15;8.15;;;1.65;;
59300;SDS011;45073;52.740;6.784;2023-05-16T12:02:45;6.72;;;1.52;;
59300;SDS011;45073;52.740;6.784;2023-05-16T12:05:11;8.98;;;1.60;;
59300;SDS011;45073;52.740;6.784;2023-05-16T12:07:37;7.18;;;1.90;;
59300;SDS011;45073;52.740;6.784;2023-05-16T12:10:04;10.20;;;2.10;;
59300;SDS011;45073;52.740;6.784;2023-05-16T12:12:31;8.68;;;2.10;;
59300;SDS011;45073;52.740;6.784;2023-05-16T12:14:57;7.50;;;1.80;;
59300;SDS011;45073;52.740;6.784;2023-05-16T12:17:23;8.90;;;1.98;;
59300;SDS011;45073;52.740;6.784;2023-05-16T12:19:49;10.02;;;2.38;;
59300;SDS011;45073;52.740;6.784;2023-05-16T12:22:15;11.68;;;2.10;;
59300;SDS011;45073;52.740;6.784;2023-05-16T12:24:42;9.35;;;2.00;;
59300;SDS011;45073;52.740;6.784;2023-05-16T12:27:08;10.02;;;2.17;;
59300;SDS011;45073;52.740;6.784;2023-05-16T12:29:33;10.52;;;2.03;;
59300;SDS011;45073;52.740;6.784;2023-05-16T12:31:59;10.43;;;2.08;;
59300;SDS011;45073;52.740;6.784;2023-05-16T12:34:27;9.85;;;2.22;;
59300;SDS011;45073;52.740;6.784;2023-05-16T12:36:54;9.02;;;2.17;;
59300;SDS011;45073;52.740;6.784;2023-05-16T12:39:20;9.27;;;1.85;;
59300;SDS011;45073;52.740;6.784;2023-05-16T12:41:47;8.57;;;1.95;;
59300;SDS011;45073;52.740;6.784;2023-05-16T12:44:13;8.98;;;2.42;;
59300;SDS011;45073;52.740;6.784;2023-05-16T12:46:51;5.60;;;1.63;;
59300;SDS011;45073;52.740;6.784;2023-05-16T12:49:20;9.10;;;1.83;;
59300;SDS011;45073;52.740;6.784;2023-05-16T12:51:47;8.02;;;2.30;;
59300;SDS011;45073;52.740;6.784;2023-05-16T12:54:16;9.05;;;2.75;;
59300;SDS011;45073;52.740;6.784;2023-05-16T12:56:43;12.10;;;2.63;;
59300;SDS011;45073;52.740;6.784;2023-05-16T12:59:09;10.95;;;3.08;;
59300;SDS011;45073;52.740;6.784;2023-05-16T13:01:36;9.98;;;3.97;;
59300;SDS011;45073;52.740;6.784;2023-05-16T13:04:02;8.55;;;2.67;;
59300;SDS011;45073;52.740;6.784;2023-05-16T13:06:28;8.23;;;2.55;;
59300;SDS011;45073;52.740;6.784;2023-05-16T13:08:54;9.32;;;2.72;;
59300;SDS011;45073;52.740;6.784;2023-05-16T13:11:20;10.63;;;2.47;;
59300;SDS011;45073;52.740;6.784;2023-05-16T13:13:46;12.50;;;3.03;;
59300;SDS011;45073;52.740;6.784;2023-05-16T13:16:12;11.75;;;2.58;;
59300;SDS011;45073;52.740;6.784;2023-05-16T13:18:38;9.45;;;2.53;;
59300;SDS011;45073;52.740;6.784;2023-05-16T13:21:03;10.82;;;2.38;;
59300;SDS011;45073;52.740;6.784;2023-05-16T13:23:29;11.38;;;2.30;;
59300;SDS011;45073;52.740;6.784;2023-05-16T13:25:55;8.35;;;2.63;;
59300;SDS011;45073;52.740;6.784;2023-05-16T13:28:21;8.50;;;2.30;;
59300;SDS011;45073;52.740;6.784;2023-05-16T13:30:46;9.45;;;2.70;;
59300;SDS011;45073;52.740;6.784;2023-05-16T13:33:12;10.68;;;3.00;;
59300;SDS011;45073;52.740;6.784;2023-05-16T13:35:38;10.70;;;3.17;;
59300;SDS011;45073;52.740;6.784;2023-05-16T13:38:03;11.75;;;2.90;;
59300;SDS011;45073;52.740;6.784;2023-05-16T13:40:29;10.40;;;2.88;;
59300;SDS011;45073;52.740;6.784;2023-05-16T13:42:55;10.20;;;2.83;;
59300;SDS011;45073;52.740;6.784;2023-05-16T13:45:21;9.73;;;3.10;;
59300;SDS011;45073;52.740;6.784;2023-05-16T13:47:47;8.88;;;2.83;;
59300;SDS011;45073;52.740;6.784;2023-05-16T13:50:12;10.00;;;3.10;;
59300;SDS011;45073;52.740;6.784;2023-05-16T13:52:38;9.82;;;2.88;;
59300;SDS011;45073;52.740;6.784;2023-05-16T13:55:05;8.70;;;3.00;;
59300;SDS011;45073;52.740;6.784;2023-05-16T13:57:31;10.57;;;3.00;;
59300;SDS011;45073;52.740;6.784;2023-05-16T13:59:57;10.13;;;3.35;;
59300;SDS011;45073;52.740;6.784;2023-05-16T14:02:23;9.70;;;3.05;;
59300;SDS011;45073;52.740;6.784;2023-05-16T14:04:50;9.38;;;3.17;;
59300;SDS011;45073;52.740;6.784;2023-05-16T14:07:16;10.40;;;3.33;;
59300;SDS011;45073;52.740;6.784;2023-05-16T14:09:42;9.60;;;3.05;;
59300;SDS011;45073;52.740;6.784;2023-05-16T14:12:09;10.57;;;3.72;;
59300;SDS011;45073;52.740;6.784;2023-05-16T14:14:35;8.82;;;2.90;;
59300;SDS011;45073;52.740;6.784;2023-05-16T14:17:01;8.40;;;2.80;;
59300;SDS011;45073;52.740;6.784;2023-05-16T14:19:28;10.85;;;3.33;;
59300;SDS011;45073;52.740;6.784;2023-05-16T14:21:57;9.90;;;3.15;;
59300;SDS011;45073;52.740;6.784;2023-05-16T14:24:28;10.80;;;3.58;;
59300;SDS011;45073;52.740;6.784;2023-05-16T14:26:53;9.60;;;3.38;;
59300;SDS011;45073;52.740;6.784;2023-05-16T14:29:19;10.90;;;3.25;;
59300;SDS011;45073;52.740;6.784;2023-05-16T14:31:45;10.05;;;3.60;;
59300;SDS011;45073;52.740;6.784;2023-05-16T14:34:11;11.20;;;3.80;;
59300;SDS011;45073;52.740;6.784;2023-05-16T14:36:37;9.48;;;3.15;;
59300;SDS011;45073;52.740;6.784;2023-05-16T14:39:02;9.90;;;2.85;;
59300;SDS011;45073;52.740;6.784;2023-05-16T14:41:28;9.93;;;3.42;;
59300;SDS011;45073;52.740;6.784;2023-05-16T14:43:54;10.30;;;3.17;;
59300;SDS011;45073;52.740;6.784;2023-05-16T14:46:20;9.23;;;3.30;;
59300;SDS011;45073;52.740;6.784;2023-05-16T14:48:45;8.63;;;3.70;;
59300;SDS011;45073;52.740;6.784;2023-05-16T14:51:11;10.95;;;4.53;;
59300;SDS011;45073;52.740;6.784;2023-05-16T14:53:37;11.27;;;4.10;;
59300;SDS011;45073;52.740;6.784;2023-05-16T14:56:02;9.77;;;4.32;;
59300;SDS011;45073;52.740;6.784;2023-05-16T14:58:29;10.98;;;3.63;;
59300;SDS011;45073;52.740;6.784;2023-05-16T15:00:54;7.63;;;2.80;;
59300;SDS011;45073;52.740;6.784;2023-05-16T15:03:20;9.57;;;3.17;;
59300;SDS011;45073;52.740;6.784;2023-05-16T15:05:46;10.95;;;4.28;;
59300;SDS011;45073;52.740;6.784;2023-05-16T15:08:12;8.43;;;3.15;;